createdAt,value
2023-03-13T00:01:36.841Z,960
2023-03-13T00:06:38.531Z,960
2023-03-13T00:11:40.154Z,960
2023-03-13T00:16:41.862Z,960
2023-03-13T00:21:43.567Z,960
2023-03-13T00:26:45.212Z,960
2023-03-13T00:31:46.881Z,959
2023-03-13T00:36:48.529Z,960
2023-03-13T00:41:50.135Z,960
2023-03-13T00:46:51.804Z,960
2023-03-13T00:51:53.451Z,960
2023-03-13T00:56:55.160Z,960
2023-03-13T01:01:56.831Z,960
2023-03-13T01:06:58.508Z,960
2023-03-13T01:12:00.357Z,960
2023-03-13T01:17:02.047Z,960
2023-03-13T01:22:03.641Z,960
2023-03-13T01:27:05.350Z,960
2023-03-13T01:32:07.056Z,960
2023-03-13T01:37:08.692Z,960
2023-03-13T01:42:10.340Z,960
2023-03-13T01:47:12.001Z,960
2023-03-13T01:52:13.706Z,960
2023-03-13T01:57:15.441Z,960
2023-03-13T02:02:17.087Z,960
2023-03-13T02:07:18.774Z,960
2023-03-13T02:12:20.391Z,960
2023-03-13T02:17:22.042Z,960
2023-03-13T02:22:23.698Z,960
2023-03-13T02:27:25.303Z,960
2023-03-13T02:32:27.830Z,960
2023-03-13T02:37:29.500Z,960
2023-03-13T02:42:31.149Z,960
2023-03-13T02:47:32.797Z,960
2023-03-13T02:52:34.440Z,960
2023-03-13T02:57:36.111Z,960
2023-03-13T03:02:37.765Z,959
2023-03-13T03:07:39.366Z,960
2023-03-13T03:12:41.023Z,960
2023-03-13T03:17:42.785Z,960
2023-03-13T03:22:44.427Z,960
2023-03-13T03:27:46.053Z,960
2023-03-13T03:32:47.772Z,960
2023-03-13T03:37:49.471Z,960
2023-03-13T03:42:51.144Z,959
2023-03-13T03:47:52.819Z,959
2023-03-13T03:52:54.459Z,959
2023-03-13T03:57:56.184Z,959
2023-03-13T04:02:57.911Z,959
2023-03-13T04:07:59.688Z,959
2023-03-13T04:13:01.410Z,959
2023-03-13T04:18:03.043Z,959
2023-03-13T04:23:04.684Z,959
2023-03-13T04:28:06.383Z,959
2023-03-13T04:33:08.274Z,959
2023-03-13T04:38:09.892Z,959
2023-03-13T04:43:11.562Z,959
2023-03-13T04:48:13.242Z,959
2023-03-13T04:53:14.835Z,959
2023-03-13T04:58:16.455Z,959
2023-03-13T05:03:18.248Z,959
2023-03-13T05:08:19.911Z,959
2023-03-13T05:13:21.625Z,959
2023-03-13T05:18:23.302Z,959
2023-03-13T05:23:24.951Z,959
2023-03-13T05:28:26.617Z,959
2023-03-13T05:33:28.200Z,959
2023-03-13T05:38:29.864Z,959
2023-03-13T05:43:31.457Z,959
2023-03-13T05:48:33.071Z,959
2023-03-13T05:53:34.712Z,959
2023-03-13T05:58:36.312Z,959
2023-03-13T06:03:38.142Z,959
2023-03-13T06:08:39.958Z,959
2023-03-13T06:13:41.744Z,959
2023-03-13T06:18:43.556Z,959
2023-03-13T06:23:45.115Z,959
2023-03-13T06:28:46.697Z,959
2023-03-13T06:33:49.741Z,959
2023-03-13T06:38:52.377Z,958
2023-03-13T06:43:53.945Z,958
2023-03-13T06:48:55.548Z,958
2023-03-13T06:53:57.339Z,958
2023-03-13T06:59:00.021Z,958
2023-03-13T07:04:01.854Z,958
2023-03-13T07:09:03.551Z,958
2023-03-13T07:14:15.833Z,958
2023-03-13T07:19:18.579Z,958
2023-03-13T07:24:20.270Z,958
2023-03-13T07:29:21.909Z,958
2023-03-13T07:34:23.586Z,958
2023-03-13T07:39:25.306Z,958
2023-03-13T07:44:26.965Z,958
2023-03-13T07:49:28.691Z,958
2023-03-13T07:54:30.307Z,958
2023-03-13T07:59:31.916Z,958
2023-03-13T08:04:33.670Z,958
2023-03-13T08:09:35.438Z,958
2023-03-13T08:14:37.080Z,958
2023-03-13T08:19:38.754Z,958
2023-03-13T08:24:40.585Z,958
2023-03-13T08:29:42.178Z,958
2023-03-13T08:34:43.876Z,957
2023-03-13T08:39:45.520Z,957
2023-03-13T08:44:47.125Z,957
2023-03-13T08:49:48.740Z,957
2023-03-13T08:54:50.353Z,957
2023-03-13T08:59:51.987Z,957
2023-03-13T09:04:53.779Z,957
2023-03-13T09:09:55.482Z,957
2023-03-13T09:14:57.143Z,957
2023-03-13T09:20:00.887Z,957
2023-03-13T09:25:02.939Z,957
2023-03-13T09:30:04.550Z,957
2023-03-13T09:35:06.171Z,957
2023-03-13T09:40:07.799Z,957
2023-03-13T09:45:09.421Z,957
2023-03-13T09:50:11.044Z,957
2023-03-13T09:55:12.662Z,957
2023-03-13T10:00:14.315Z,957
2023-03-13T10:05:15.996Z,957
2023-03-13T10:10:17.859Z,956
2023-03-13T10:15:19.524Z,957
2023-03-13T10:20:21.342Z,956
2023-03-13T10:25:23.042Z,956
2023-03-13T10:30:24.779Z,956
2023-03-13T10:35:26.384Z,956
2023-03-13T10:40:28.098Z,956
2023-03-13T10:45:29.866Z,956
2023-03-13T10:50:31.498Z,956
2023-03-13T10:55:33.137Z,956
2023-03-13T11:00:34.822Z,956
2023-03-13T11:05:36.342Z,956
2023-03-13T11:10:38.116Z,956
2023-03-13T11:15:39.743Z,956
2023-03-13T11:20:41.399Z,956
2023-03-13T11:25:43.016Z,956
2023-03-13T11:30:44.640Z,956
2023-03-13T11:35:46.454Z,955
2023-03-13T11:40:48.089Z,955
2023-03-13T11:45:49.809Z,955
2023-03-13T11:50:51.553Z,955
2023-03-13T11:55:53.150Z,955
2023-03-13T12:00:54.798Z,955
2023-03-13T12:05:56.427Z,955
2023-03-13T12:10:58.105Z,955
2023-03-13T12:15:59.741Z,955
2023-03-13T12:21:01.409Z,955
2023-03-13T12:26:03.088Z,955
2023-03-13T12:31:04.852Z,955
2023-03-13T12:36:06.565Z,955
2023-03-13T12:41:08.265Z,955
2023-03-13T12:46:10.023Z,955
2023-03-13T12:51:11.667Z,955
2023-03-13T12:56:13.327Z,955
2023-03-13T13:01:14.992Z,955
2023-03-13T13:06:16.727Z,955
2023-03-13T13:11:18.367Z,955
2023-03-13T13:16:20.025Z,955
2023-03-13T13:21:21.805Z,954
2023-03-13T13:26:23.418Z,954
2023-03-13T13:31:25.157Z,954
2023-03-13T13:36:26.814Z,954
2023-03-13T13:41:28.517Z,954
2023-03-13T13:46:30.263Z,954
2023-03-13T13:51:32.105Z,954
2023-03-13T13:56:33.861Z,954
2023-03-13T14:01:35.675Z,954
2023-03-13T14:06:37.487Z,954
2023-03-13T14:11:39.382Z,954
2023-03-13T14:16:41.217Z,954
2023-03-13T14:21:42.851Z,954
2023-03-13T14:26:44.486Z,954
2023-03-13T14:31:46.290Z,954
2023-03-13T14:36:48.046Z,954
2023-03-13T14:41:49.789Z,954
2023-03-13T14:46:51.433Z,954
2023-03-13T14:51:53.177Z,954
2023-03-13T14:56:54.849Z,954
2023-03-13T15:01:56.467Z,954
2023-03-13T15:06:58.111Z,954
2023-03-13T15:11:59.824Z,954
2023-03-13T15:17:01.443Z,954
2023-03-13T15:22:03.049Z,954
2023-03-13T15:27:04.807Z,954
2023-03-13T15:32:06.522Z,954
2023-03-13T15:37:08.200Z,954
2023-03-13T15:42:09.867Z,954
2023-03-13T15:47:11.494Z,954
2023-03-13T15:52:13.194Z,954
2023-03-13T15:57:14.807Z,953
2023-03-13T16:02:16.501Z,953
2023-03-13T16:07:18.169Z,953
2023-03-13T16:12:19.826Z,953
2023-03-13T16:17:21.452Z,953
2023-03-13T16:22:23.111Z,953
2023-03-13T16:27:24.763Z,953
2023-03-13T16:32:26.469Z,953
2023-03-13T16:37:28.242Z,953
2023-03-13T16:42:29.925Z,953
2023-03-13T16:47:31.587Z,953
2023-03-13T16:52:33.475Z,953
2023-03-13T16:57:35.085Z,953
2023-03-13T17:02:36.766Z,953
2023-03-13T17:07:38.426Z,953
2023-03-13T17:12:40.077Z,953
2023-03-13T17:17:41.682Z,953
2023-03-13T17:22:43.321Z,953
2023-03-13T17:27:44.997Z,953
2023-03-13T17:32:46.930Z,953
2023-03-13T17:37:48.630Z,953
2023-03-13T17:42:50.555Z,953
2023-03-13T17:47:52.502Z,953
2023-03-13T17:52:54.133Z,953
2023-03-13T17:57:55.811Z,953
2023-03-13T18:02:57.472Z,953
2023-03-13T18:07:59.246Z,953
2023-03-13T18:13:01.016Z,953
2023-03-13T18:18:02.689Z,953
2023-03-13T18:23:04.372Z,953
2023-03-13T18:28:06.095Z,952
2023-03-13T18:33:07.743Z,952
2023-03-13T18:38:09.625Z,952
2023-03-13T18:43:11.266Z,952
2023-03-13T18:48:12.899Z,952
2023-03-13T18:53:14.562Z,952
2023-03-13T18:58:16.205Z,952
2023-03-13T19:03:17.901Z,952
2023-03-13T19:08:19.540Z,952
2023-03-13T19:13:21.200Z,952
2023-03-13T19:18:22.913Z,952
2023-03-13T19:23:24.504Z,952
2023-03-13T19:28:26.154Z,952
2023-03-13T19:33:27.778Z,952
2023-03-13T19:38:29.462Z,951
2023-03-13T19:43:31.323Z,951
2023-03-13T19:48:32.981Z,951
2023-03-13T19:53:34.570Z,951
2023-03-13T19:58:36.309Z,952
2023-03-13T20:03:37.941Z,951
2023-03-13T20:08:39.711Z,951
2023-03-13T20:13:41.350Z,951
2023-03-13T20:18:43.118Z,951
2023-03-13T20:23:44.732Z,951
2023-03-13T20:28:46.436Z,951
2023-03-13T20:33:48.039Z,951
2023-03-13T20:38:49.726Z,951
2023-03-13T20:43:51.516Z,951
2023-03-13T20:48:53.127Z,951
2023-03-13T20:53:54.834Z,951
2023-03-13T20:58:56.469Z,951
2023-03-13T21:03:58.158Z,951
2023-03-13T21:08:59.844Z,951
2023-03-13T21:14:01.470Z,950
2023-03-13T21:19:03.196Z,950
2023-03-13T21:24:04.963Z,950
2023-03-13T21:29:06.576Z,950
2023-03-13T21:34:08.327Z,950
2023-03-13T21:39:10.038Z,950
2023-03-13T21:44:11.706Z,950
2023-03-13T21:49:13.299Z,950
2023-03-13T21:54:14.984Z,950
2023-03-13T21:59:16.787Z,950
2023-03-13T22:04:18.496Z,950
2023-03-13T22:09:20.187Z,950
2023-03-13T22:14:21.890Z,950
2023-03-13T22:19:23.556Z,950
2023-03-13T22:24:25.326Z,950
2023-03-13T22:29:27.220Z,950
2023-03-13T22:34:29.748Z,949
2023-03-13T22:39:31.408Z,950
2023-03-13T22:44:33.081Z,949
2023-03-13T22:49:34.744Z,949
2023-03-13T22:54:36.429Z,949
2023-03-13T22:59:38.026Z,949
2023-03-13T23:04:39.711Z,949
2023-03-13T23:09:41.373Z,949
2023-03-13T23:14:43.022Z,949
2023-03-13T23:19:44.874Z,949
2023-03-13T23:24:46.499Z,949
2023-03-13T23:29:48.081Z,949
2023-03-13T23:34:49.880Z,949
2023-03-13T23:39:51.518Z,949
2023-03-13T23:44:53.213Z,949
2023-03-13T23:49:55.106Z,949
2023-03-13T23:54:56.748Z,948
2023-03-13T23:59:58.500Z,948
